sensor_id;sensor_type;location;lat;lon;timestamp;P1;durP1;ratioP1;P2;durP2;ratioP2
49440;SDS011;35317;51.978;6.296;2023-03-20T00:04:51;8.52;;;2.92;;
49440;SDS011;35317;51.978;6.296;2023-03-20T00:09:52;6.85;;;3.25;;
49440;SDS011;35317;51.978;6.296;2023-03-20T00:14:53;9.25;;;3.65;;
49440;SDS011;35317;51.978;6.296;2023-03-20T00:19:55;8.85;;;3.25;;
49440;SDS011;35317;51.978;6.296;2023-03-20T00:24:55;8.25;;;3.55;;
49440;SDS011;35317;51.978;6.296;2023-03-20T00:29:56;11.20;;;3.92;;
49440;SDS011;35317;51.978;6.296;2023-03-20T00:34:57;8.18;;;3.97;;
49440;SDS011;35317;51.978;6.296;2023-03-20T00:39:58;13.77;;;4.43;;
49440;SDS011;35317;51.978;6.296;2023-03-20T00:44:59;12.00;;;4.20;;
49440;SDS011;35317;51.978;6.296;2023-03-20T00:50:01;12.30;;;4.75;;
49440;SDS011;35317;51.978;6.296;2023-03-20T00:55:17;8.73;;;3.38;;
49440;SDS011;35317;51.978;6.296;2023-03-20T01:05:39;8.07;;;3.58;;
49440;SDS011;35317;51.978;6.296;2023-03-20T01:10:39;8.70;;;3.38;;
49440;SDS011;35317;51.978;6.296;2023-03-20T01:15:42;7.15;;;3.35;;
49440;SDS011;35317;51.978;6.296;2023-03-20T01:20:43;10.40;;;3.97;;
49440;SDS011;35317;51.978;6.296;2023-03-20T01:25:45;4.57;;;2.65;;
49440;SDS011;35317;51.978;6.296;2023-03-20T01:30:46;7.28;;;3.10;;
49440;SDS011;35317;51.978;6.296;2023-03-20T01:35:48;7.40;;;3.15;;
49440;SDS011;35317;51.978;6.296;2023-03-20T01:46:18;8.00;;;3.28;;
49440;SDS011;35317;51.978;6.296;2023-03-20T01:51:24;9.80;;;3.47;;
49440;SDS011;35317;51.978;6.296;2023-03-20T01:56:32;7.65;;;3.58;;
49440;SDS011;35317;51.978;6.296;2023-03-20T02:01:38;8.27;;;4.03;;
49440;SDS011;35317;51.978;6.296;2023-03-20T02:06:41;7.45;;;3.75;;
49440;SDS011;35317;51.978;6.296;2023-03-20T02:11:44;8.45;;;3.60;;
49440;SDS011;35317;51.978;6.296;2023-03-20T02:16:46;8.65;;;3.85;;
49440;SDS011;35317;51.978;6.296;2023-03-20T02:27:05;7.50;;;3.70;;
49440;SDS011;35317;51.978;6.296;2023-03-20T02:43:28;8.93;;;4.38;;
49440;SDS011;35317;51.978;6.296;2023-03-20T02:53:51;7.18;;;3.28;;
49440;SDS011;35317;51.978;6.296;2023-03-20T02:59:18;6.88;;;3.00;;
49440;SDS011;35317;51.978;6.296;2023-03-20T03:04:30;6.35;;;3.28;;
49440;SDS011;35317;51.978;6.296;2023-03-20T03:15:33;6.28;;;3.05;;
49440;SDS011;35317;51.978;6.296;2023-03-20T03:20:38;5.60;;;2.85;;
49440;SDS011;35317;51.978;6.296;2023-03-20T03:25:39;7.65;;;3.08;;
49440;SDS011;35317;51.978;6.296;2023-03-20T03:30:41;5.88;;;2.25;;
49440;SDS011;35317;51.978;6.296;2023-03-20T03:35:44;4.70;;;2.22;;
49440;SDS011;35317;51.978;6.296;2023-03-20T03:40:56;4.60;;;2.15;;
49440;SDS011;35317;51.978;6.296;2023-03-20T03:46:33;6.20;;;1.92;;
49440;SDS011;35317;51.978;6.296;2023-03-20T03:51:40;4.28;;;1.55;;
49440;SDS011;35317;51.978;6.296;2023-03-20T03:56:44;4.65;;;2.28;;
49440;SDS011;35317;51.978;6.296;2023-03-20T04:01:46;5.47;;;2.13;;
49440;SDS011;35317;51.978;6.296;2023-03-20T04:06:50;3.40;;;1.88;;
49440;SDS011;35317;51.978;6.296;2023-03-20T04:11:51;5.78;;;2.28;;
49440;SDS011;35317;51.978;6.296;2023-03-20T04:16:52;3.45;;;1.67;;
49440;SDS011;35317;51.978;6.296;2023-03-20T04:21:53;4.45;;;2.13;;
49440;SDS011;35317;51.978;6.296;2023-03-20T04:26:54;5.00;;;2.25;;
49440;SDS011;35317;51.978;6.296;2023-03-20T04:31:55;5.03;;;2.13;;
49440;SDS011;35317;51.978;6.296;2023-03-20T04:36:56;8.20;;;2.70;;
49440;SDS011;35317;51.978;6.296;2023-03-20T04:41:57;5.60;;;2.47;;
49440;SDS011;35317;51.978;6.296;2023-03-20T04:46:57;9.02;;;2.45;;
49440;SDS011;35317;51.978;6.296;2023-03-20T04:51:58;5.32;;;2.22;;
49440;SDS011;35317;51.978;6.296;2023-03-20T04:56:59;5.18;;;3.00;;
49440;SDS011;35317;51.978;6.296;2023-03-20T05:02:00;9.30;;;3.03;;
49440;SDS011;35317;51.978;6.296;2023-03-20T05:07:01;7.72;;;3.45;;
49440;SDS011;35317;51.978;6.296;2023-03-20T05:12:01;6.25;;;2.45;;
49440;SDS011;35317;51.978;6.296;2023-03-20T05:17:04;6.20;;;2.83;;
49440;SDS011;35317;51.978;6.296;2023-03-20T05:22:05;10.65;;;3.28;;
49440;SDS011;35317;51.978;6.296;2023-03-20T05:27:05;8.35;;;3.28;;
49440;SDS011;35317;51.978;6.296;2023-03-20T05:32:06;8.95;;;3.55;;
49440;SDS011;35317;51.978;6.296;2023-03-20T05:37:07;8.55;;;3.88;;
49440;SDS011;35317;51.978;6.296;2023-03-20T05:42:08;7.78;;;3.30;;
49440;SDS011;35317;51.978;6.296;2023-03-20T05:47:08;8.55;;;3.30;;
49440;SDS011;35317;51.978;6.296;2023-03-20T05:52:09;7.15;;;3.67;;
49440;SDS011;35317;51.978;6.296;2023-03-20T05:57:10;9.07;;;2.85;;
49440;SDS011;35317;51.978;6.296;2023-03-20T06:02:11;6.72;;;2.65;;
49440;SDS011;35317;51.978;6.296;2023-03-20T06:07:12;7.53;;;2.83;;
49440;SDS011;35317;51.978;6.296;2023-03-20T06:12:13;6.43;;;2.60;;
49440;SDS011;35317;51.978;6.296;2023-03-20T06:17:13;7.93;;;2.42;;
49440;SDS011;35317;51.978;6.296;2023-03-20T06:22:14;8.95;;;3.00;;
49440;SDS011;35317;51.978;6.296;2023-03-20T06:27:15;7.40;;;3.38;;
49440;SDS011;35317;51.978;6.296;2023-03-20T06:32:16;8.10;;;3.28;;
49440;SDS011;35317;51.978;6.296;2023-03-20T06:37:18;7.55;;;3.22;;
49440;SDS011;35317;51.978;6.296;2023-03-20T06:42:22;9.27;;;3.30;;
49440;SDS011;35317;51.978;6.296;2023-03-20T06:47:23;6.75;;;3.05;;
49440;SDS011;35317;51.978;6.296;2023-03-20T06:52:24;5.80;;;2.83;;
49440;SDS011;35317;51.978;6.296;2023-03-20T06:57:24;7.72;;;3.33;;
49440;SDS011;35317;51.978;6.296;2023-03-20T07:02:26;6.40;;;2.78;;
49440;SDS011;35317;51.978;6.296;2023-03-20T07:07:27;7.50;;;3.17;;
49440;SDS011;35317;51.978;6.296;2023-03-20T07:12:28;5.63;;;2.95;;
49440;SDS011;35317;51.978;6.296;2023-03-20T07:17:29;5.40;;;2.72;;
49440;SDS011;35317;51.978;6.296;2023-03-20T07:22:30;5.35;;;2.80;;
49440;SDS011;35317;51.978;6.296;2023-03-20T07:27:30;6.32;;;2.72;;
49440;SDS011;35317;51.978;6.296;2023-03-20T07:32:31;4.88;;;1.88;;
49440;SDS011;35317;51.978;6.296;2023-03-20T07:37:32;7.85;;;3.17;;
49440;SDS011;35317;51.978;6.296;2023-03-20T07:42:33;6.20;;;2.67;;
49440;SDS011;35317;51.978;6.296;2023-03-20T07:47:34;6.55;;;2.72;;
49440;SDS011;35317;51.978;6.296;2023-03-20T07:52:35;7.38;;;2.70;;
49440;SDS011;35317;51.978;6.296;2023-03-20T07:57:36;3.92;;;2.08;;
49440;SDS011;35317;51.978;6.296;2023-03-20T08:02:37;4.93;;;2.45;;
49440;SDS011;35317;51.978;6.296;2023-03-20T08:07:37;3.97;;;2.15;;
49440;SDS011;35317;51.978;6.296;2023-03-20T08:12:38;3.55;;;1.85;;
49440;SDS011;35317;51.978;6.296;2023-03-20T08:17:42;5.97;;;2.30;;
49440;SDS011;35317;51.978;6.296;2023-03-20T08:22:46;4.15;;;2.05;;
49440;SDS011;35317;51.978;6.296;2023-03-20T08:27:48;3.35;;;2.03;;
49440;SDS011;35317;51.978;6.296;2023-03-20T08:32:49;4.63;;;2.72;;
49440;SDS011;35317;51.978;6.296;2023-03-20T08:37:50;3.75;;;2.22;;
49440;SDS011;35317;51.978;6.296;2023-03-20T08:42:51;4.68;;;1.85;;
49440;SDS011;35317;51.978;6.296;2023-03-20T08:47:52;4.10;;;1.50;;
49440;SDS011;35317;51.978;6.296;2023-03-20T08:52:52;3.13;;;1.48;;
49440;SDS011;35317;51.978;6.296;2023-03-20T08:57:53;3.22;;;2.00;;
49440;SDS011;35317;51.978;6.296;2023-03-20T09:02:56;4.30;;;1.70;;
49440;SDS011;35317;51.978;6.296;2023-03-20T09:07:57;5.90;;;2.05;;
49440;SDS011;35317;51.978;6.296;2023-03-20T09:12:59;4.13;;;1.95;;
49440;SDS011;35317;51.978;6.296;2023-03-20T09:18:00;4.15;;;1.92;;
49440;SDS011;35317;51.978;6.296;2023-03-20T09:23:01;3.88;;;1.90;;
49440;SDS011;35317;51.978;6.296;2023-03-20T09:28:02;4.25;;;1.83;;
49440;SDS011;35317;51.978;6.296;2023-03-20T09:33:03;2.92;;;1.70;;
49440;SDS011;35317;51.978;6.296;2023-03-20T09:38:04;2.80;;;1.55;;
49440;SDS011;35317;51.978;6.296;2023-03-20T09:48:18;1.80;;;1.17;;
49440;SDS011;35317;51.978;6.296;2023-03-20T09:53:36;4.82;;;2.15;;
49440;SDS011;35317;51.978;6.296;2023-03-20T09:58:51;4.07;;;1.33;;
49440;SDS011;35317;51.978;6.296;2023-03-20T10:04:10;4.53;;;2.00;;
49440;SDS011;35317;51.978;6.296;2023-03-20T10:09:21;5.55;;;1.67;;
49440;SDS011;35317;51.978;6.296;2023-03-20T10:14:32;3.80;;;1.50;;
49440;SDS011;35317;51.978;6.296;2023-03-20T10:20:12;2.60;;;1.35;;
49440;SDS011;35317;51.978;6.296;2023-03-20T10:25:32;2.63;;;1.20;;
49440;SDS011;35317;51.978;6.296;2023-03-20T10:30:48;4.60;;;1.60;;
49440;SDS011;35317;51.978;6.296;2023-03-20T10:41:39;4.00;;;1.23;;
49440;SDS011;35317;51.978;6.296;2023-03-20T10:46:50;2.30;;;1.30;;
49440;SDS011;35317;51.978;6.296;2023-03-20T10:51:57;3.38;;;1.65;;
49440;SDS011;35317;51.978;6.296;2023-03-20T10:57:04;4.82;;;1.83;;
49440;SDS011;35317;51.978;6.296;2023-03-20T11:02:28;5.80;;;1.85;;
49440;SDS011;35317;51.978;6.296;2023-03-20T11:07:31;6.03;;;2.08;;
49440;SDS011;35317;51.978;6.296;2023-03-20T11:12:36;5.72;;;2.00;;
49440;SDS011;35317;51.978;6.296;2023-03-20T11:17:40;3.00;;;1.85;;
49440;SDS011;35317;51.978;6.296;2023-03-20T11:22:41;4.22;;;1.85;;
49440;SDS011;35317;51.978;6.296;2023-03-20T11:27:42;2.63;;;1.60;;
49440;SDS011;35317;51.978;6.296;2023-03-20T11:32:46;2.15;;;1.17;;
49440;SDS011;35317;51.978;6.296;2023-03-20T11:37:50;3.03;;;1.90;;
49440;SDS011;35317;51.978;6.296;2023-03-20T11:42:55;3.38;;;1.80;;
49440;SDS011;35317;51.978;6.296;2023-03-20T11:48:02;4.75;;;1.98;;
49440;SDS011;35317;51.978;6.296;2023-03-20T11:58:30;6.05;;;1.67;;
49440;SDS011;35317;51.978;6.296;2023-03-20T12:03:40;1.60;;;1.00;;
49440;SDS011;35317;51.978;6.296;2023-03-20T12:08:47;1.85;;;0.80;;
49440;SDS011;35317;51.978;6.296;2023-03-20T12:14:22;1.73;;;0.88;;
49440;SDS011;35317;51.978;6.296;2023-03-20T12:20:13;2.03;;;0.98;;
49440;SDS011;35317;51.978;6.296;2023-03-20T12:25:48;3.28;;;1.20;;
49440;SDS011;35317;51.978;6.296;2023-03-20T12:31:01;2.10;;;0.88;;
49440;SDS011;35317;51.978;6.296;2023-03-20T12:36:31;2.38;;;1.00;;
49440;SDS011;35317;51.978;6.296;2023-03-20T12:41:48;0.93;;;0.70;;
49440;SDS011;35317;51.978;6.296;2023-03-20T12:52:57;2.08;;;1.00;;
49440;SDS011;35317;51.978;6.296;2023-03-20T12:58:40;1.75;;;0.85;;
49440;SDS011;35317;51.978;6.296;2023-03-20T13:03:55;1.98;;;1.02;;
49440;SDS011;35317;51.978;6.296;2023-03-20T13:20:08;2.97;;;1.00;;
49440;SDS011;35317;51.978;6.296;2023-03-20T13:30:49;2.53;;;1.35;;
49440;SDS011;35317;51.978;6.296;2023-03-20T13:41:45;1.70;;;1.08;;
49440;SDS011;35317;51.978;6.296;2023-03-20T13:46:53;3.83;;;1.40;;
49440;SDS011;35317;51.978;6.296;2023-03-20T13:52:03;3.30;;;1.38;;
49440;SDS011;35317;51.978;6.296;2023-03-20T13:57:18;4.20;;;1.63;;
49440;SDS011;35317;51.978;6.296;2023-03-20T14:02:54;3.33;;;1.58;;
49440;SDS011;35317;51.978;6.296;2023-03-20T14:13:26;4.18;;;1.65;;
49440;SDS011;35317;51.978;6.296;2023-03-20T14:18:30;2.03;;;1.60;;
49440;SDS011;35317;51.978;6.296;2023-03-20T14:23:32;3.58;;;1.77;;
49440;SDS011;35317;51.978;6.296;2023-03-20T14:28:42;8.63;;;1.70;;
49440;SDS011;35317;51.978;6.296;2023-03-20T14:34:21;2.45;;;1.40;;
49440;SDS011;35317;51.978;6.296;2023-03-20T14:45:05;5.50;;;2.03;;
49440;SDS011;35317;51.978;6.296;2023-03-20T14:55:33;2.50;;;1.38;;
49440;SDS011;35317;51.978;6.296;2023-03-20T15:01:14;2.20;;;1.73;;
49440;SDS011;35317;51.978;6.296;2023-03-20T15:06:20;5.03;;;1.98;;
49440;SDS011;35317;51.978;6.296;2023-03-20T15:11:24;3.25;;;1.80;;
49440;SDS011;35317;51.978;6.296;2023-03-20T15:16:29;4.57;;;2.08;;
49440;SDS011;35317;51.978;6.296;2023-03-20T15:21:33;5.38;;;1.85;;
49440;SDS011;35317;51.978;6.296;2023-03-20T15:26:37;3.35;;;2.20;;
49440;SDS011;35317;51.978;6.296;2023-03-20T15:31:38;4.82;;;2.13;;
49440;SDS011;35317;51.978;6.296;2023-03-20T15:36:40;2.72;;;1.70;;
49440;SDS011;35317;51.978;6.296;2023-03-20T15:41:45;2.45;;;1.65;;
49440;SDS011;35317;51.978;6.296;2023-03-20T15:47:02;3.40;;;2.20;;
49440;SDS011;35317;51.978;6.296;2023-03-20T15:52:33;7.05;;;2.60;;
49440;SDS011;35317;51.978;6.296;2023-03-20T15:57:51;4.38;;;2.00;;
49440;SDS011;35317;51.978;6.296;2023-03-20T16:02:58;3.13;;;2.10;;
49440;SDS011;35317;51.978;6.296;2023-03-20T16:13:33;3.53;;;2.20;;
49440;SDS011;35317;51.978;6.296;2023-03-20T16:18:45;6.90;;;3.08;;
49440;SDS011;35317;51.978;6.296;2023-03-20T16:23:48;3.33;;;2.30;;
49440;SDS011;35317;51.978;6.296;2023-03-20T16:28:54;3.92;;;2.58;;
49440;SDS011;35317;51.978;6.296;2023-03-20T16:34:03;7.63;;;2.08;;
49440;SDS011;35317;51.978;6.296;2023-03-20T16:44:19;6.03;;;3.10;;
49440;SDS011;35317;51.978;6.296;2023-03-20T16:54:34;3.20;;;2.38;;
49440;SDS011;35317;51.978;6.296;2023-03-20T16:59:37;3.40;;;2.30;;
49440;SDS011;35317;51.978;6.296;2023-03-20T17:04:39;5.57;;;2.90;;
49440;SDS011;35317;51.978;6.296;2023-03-20T17:09:51;8.50;;;2.92;;
49440;SDS011;35317;51.978;6.296;2023-03-20T17:14:58;5.57;;;2.75;;
49440;SDS011;35317;51.978;6.296;2023-03-20T17:19:58;4.65;;;3.30;;
49440;SDS011;35317;51.978;6.296;2023-03-20T17:24:59;5.18;;;2.72;;
49440;SDS011;35317;51.978;6.296;2023-03-20T17:30:00;4.82;;;2.63;;
49440;SDS011;35317;51.978;6.296;2023-03-20T17:35:01;5.25;;;2.67;;
49440;SDS011;35317;51.978;6.296;2023-03-20T17:40:02;4.57;;;2.65;;
49440;SDS011;35317;51.978;6.296;2023-03-20T17:45:04;5.20;;;3.00;;
49440;SDS011;35317;51.978;6.296;2023-03-20T17:50:05;5.68;;;3.08;;
49440;SDS011;35317;51.978;6.296;2023-03-20T17:55:12;5.05;;;2.60;;
49440;SDS011;35317;51.978;6.296;2023-03-20T18:00:21;5.38;;;2.30;;
49440;SDS011;35317;51.978;6.296;2023-03-20T18:05:23;4.28;;;2.30;;
49440;SDS011;35317;51.978;6.296;2023-03-20T18:10:25;6.95;;;2.80;;
49440;SDS011;35317;51.978;6.296;2023-03-20T18:15:32;5.18;;;2.58;;
49440;SDS011;35317;51.978;6.296;2023-03-20T18:20:34;5.57;;;2.92;;
49440;SDS011;35317;51.978;6.296;2023-03-20T18:30:39;4.57;;;2.45;;
49440;SDS011;35317;51.978;6.296;2023-03-20T18:35:40;6.22;;;2.90;;
49440;SDS011;35317;51.978;6.296;2023-03-20T18:40:41;3.95;;;2.28;;
49440;SDS011;35317;51.978;6.296;2023-03-20T18:45:46;4.60;;;2.33;;
49440;SDS011;35317;51.978;6.296;2023-03-20T18:50:46;3.90;;;1.98;;
49440;SDS011;35317;51.978;6.296;2023-03-20T18:55:49;8.00;;;2.90;;
49440;SDS011;35317;51.978;6.296;2023-03-20T19:00:50;3.42;;;2.10;;
49440;SDS011;35317;51.978;6.296;2023-03-20T19:05:55;5.55;;;2.60;;
49440;SDS011;35317;51.978;6.296;2023-03-20T19:10:57;2.83;;;1.88;;
49440;SDS011;35317;51.978;6.296;2023-03-20T19:15:58;4.68;;;2.65;;
49440;SDS011;35317;51.978;6.296;2023-03-20T19:20:58;8.80;;;3.90;;
49440;SDS011;35317;51.978;6.296;2023-03-20T19:25:59;8.70;;;2.85;;
49440;SDS011;35317;51.978;6.296;2023-03-20T19:31:00;3.80;;;2.17;;
49440;SDS011;35317;51.978;6.296;2023-03-20T19:36:01;6.32;;;2.22;;
49440;SDS011;35317;51.978;6.296;2023-03-20T19:41:03;2.78;;;1.98;;
49440;SDS011;35317;51.978;6.296;2023-03-20T19:46:04;2.65;;;1.65;;
49440;SDS011;35317;51.978;6.296;2023-03-20T19:51:05;4.93;;;2.20;;
49440;SDS011;35317;51.978;6.296;2023-03-20T19:56:13;3.40;;;2.35;;
49440;SDS011;35317;51.978;6.296;2023-03-20T20:06:20;3.88;;;2.10;;
49440;SDS011;35317;51.978;6.296;2023-03-20T20:11:21;3.00;;;1.90;;
49440;SDS011;35317;51.978;6.296;2023-03-20T20:16:22;3.58;;;2.30;;
49440;SDS011;35317;51.978;6.296;2023-03-20T20:21:23;4.05;;;2.15;;
49440;SDS011;35317;51.978;6.296;2023-03-20T20:26:24;3.97;;;2.13;;
49440;SDS011;35317;51.978;6.296;2023-03-20T20:31:28;7.15;;;2.75;;
49440;SDS011;35317;51.978;6.296;2023-03-20T20:36:30;6.95;;;2.40;;
49440;SDS011;35317;51.978;6.296;2023-03-20T20:41:31;5.72;;;2.38;;
49440;SDS011;35317;51.978;6.296;2023-03-20T20:46:31;3.40;;;2.10;;
49440;SDS011;35317;51.978;6.296;2023-03-20T20:51:33;3.17;;;2.13;;
49440;SDS011;35317;51.978;6.296;2023-03-20T20:56:37;5.78;;;2.55;;
49440;SDS011;35317;51.978;6.296;2023-03-20T21:01:37;5.37;;;2.80;;
49440;SDS011;35317;51.978;6.296;2023-03-20T21:06:38;4.78;;;2.80;;
49440;SDS011;35317;51.978;6.296;2023-03-20T21:11:40;5.78;;;2.75;;
49440;SDS011;35317;51.978;6.296;2023-03-20T21:16:40;5.93;;;2.72;;
49440;SDS011;35317;51.978;6.296;2023-03-20T21:21:41;5.85;;;3.22;;
49440;SDS011;35317;51.978;6.296;2023-03-20T21:26:42;5.40;;;2.50;;
49440;SDS011;35317;51.978;6.296;2023-03-20T21:31:45;4.63;;;2.80;;
49440;SDS011;35317;51.978;6.296;2023-03-20T21:36:46;9.75;;;3.28;;
49440;SDS011;35317;51.978;6.296;2023-03-20T21:41:47;7.05;;;3.22;;
49440;SDS011;35317;51.978;6.296;2023-03-20T21:46:48;7.82;;;3.03;;
49440;SDS011;35317;51.978;6.296;2023-03-20T21:51:49;7.72;;;3.10;;
49440;SDS011;35317;51.978;6.296;2023-03-20T21:56:50;5.57;;;3.58;;
49440;SDS011;35317;51.978;6.296;2023-03-20T22:01:50;6.50;;;3.47;;
49440;SDS011;35317;51.978;6.296;2023-03-20T22:06:51;5.78;;;3.58;;
49440;SDS011;35317;51.978;6.296;2023-03-20T22:11:52;7.25;;;3.83;;
49440;SDS011;35317;51.978;6.296;2023-03-20T22:16:53;9.60;;;3.78;;
49440;SDS011;35317;51.978;6.296;2023-03-20T22:21:54;6.35;;;3.38;;
49440;SDS011;35317;51.978;6.296;2023-03-20T22:26:55;5.15;;;3.30;;
49440;SDS011;35317;51.978;6.296;2023-03-20T22:31:56;6.50;;;3.47;;
49440;SDS011;35317;51.978;6.296;2023-03-20T22:36:57;9.82;;;3.63;;
49440;SDS011;35317;51.978;6.296;2023-03-20T22:41:58;5.85;;;3.28;;
49440;SDS011;35317;51.978;6.296;2023-03-20T22:46:58;8.10;;;3.67;;
49440;SDS011;35317;51.978;6.296;2023-03-20T22:51:59;7.25;;;3.40;;
49440;SDS011;35317;51.978;6.296;2023-03-20T22:57:00;8.70;;;3.28;;
49440;SDS011;35317;51.978;6.296;2023-03-20T23:02:01;6.32;;;3.53;;
49440;SDS011;35317;51.978;6.296;2023-03-20T23:07:02;5.93;;;3.63;;
49440;SDS011;35317;51.978;6.296;2023-03-20T23:12:02;7.10;;;3.60;;
49440;SDS011;35317;51.978;6.296;2023-03-20T23:17:04;8.52;;;3.60;;
49440;SDS011;35317;51.978;6.296;2023-03-20T23:22:04;7.97;;;3.50;;
49440;SDS011;35317;51.978;6.296;2023-03-20T23:27:06;6.03;;;3.08;;
49440;SDS011;35317;51.978;6.296;2023-03-20T23:32:07;8.10;;;3.45;;
49440;SDS011;35317;51.978;6.296;2023-03-20T23:37:08;4.78;;;3.00;;
49440;SDS011;35317;51.978;6.296;2023-03-20T23:42:09;6.45;;;3.42;;
49440;SDS011;35317;51.978;6.296;2023-03-20T23:47:10;7.40;;;3.50;;
49440;SDS011;35317;51.978;6.296;2023-03-20T23:52:11;7.00;;;3.00;;
49440;SDS011;35317;51.978;6.296;2023-03-20T23:57:12;4.57;;;2.90;;
